Saint Helena, CA

3:30 PM PST on November 20, 2014 (GMT -0800)
Napa County | Change Station
CLOSE
Current Station
Airport
Location: Napa County,
Elevation: 33 ft
Nearby Weather Stations

Elev 33 ft 38.21 °N, 122.28 °W | Updated 1 hour ago

Overcast
Overcast
55 °F
Feels Like 55 °F
N
10
Wind Variable Wind from East

Today
High -- | Low -- °F
--% Chance of Precip.
Yesterday
High -- | Low -- °F
Precip. -- in
6:57 AM 4:53 PM
Waning Crescent, 3% visible
Pressure 30.00 in
Visibility 8.0 miles
Clouds Mostly Cloudy 900 ft
Mostly Cloudy 1400 ft
Dew Point 54 °F
Humidity 96%
Rainfall 0.27 in
Snow Depth Not available.
UV 1 out of 12
Pollen .40 out of 12
Air Quality Not available.
Flu Activity Not available.
SPECI KAPC 202215Z AUTO 09009KT 8SM BKN009 BKN014 13/12 A3000 RMK AO2 CIG 006V011 P0001 T01280122

More Conditions Fewer Conditions

Pressure 30.00 in
Visibility 8.0 miles
Clouds Mostly Cloudy 900 ft
Mostly Cloudy 1400 ft
Dew Point 54 °F
Humidity 96%
Rainfall 0.27 in
Snow Depth Not available.
UV 1 out of 12
Pollen .40 out of 12
Air Quality Not available.
Flu Activity Not available.
SPECI KAPC 202215Z AUTO 09009KT 8SM BKN009 BKN014 13/12 A3000 RMK AO2 CIG 006V011 P0001 T01280122

More Conditions Fewer Conditions

10-Day Weather Forecast

Almanac

Astronomy

Nov. 20, 2014 Rise Set
Actual Time
Civil Twilight
Nautical Twilight
Astronomical Twilight
Moon
Length of Visible Light
Length of Day
Tomorrow will be .
, % of the Moon is Illuminated

Today's Extremes

State Highs State Lows

Community

WunderPhotos

Upload Photos

1,772,553 photos uploaded!

WunderBlogs® & News

Nearby

Air Quality

  Air Quality AQ Index Pollutant
Not available.

Snow Depth

Station Depth Elevation

Earthquake Activity

City Distance Mag. Time & Date
Minimum magnitude displayed is 2.5.

Coastal Water Temperatures

Place Temperature

Nearby Weather Stations